createdAt,value
2023-04-03T00:01:15.562Z,9.74
2023-04-03T00:03:43.025Z,9.74
2023-04-03T00:06:14.456Z,9.75
2023-04-03T00:08:41.669Z,9.76
2023-04-03T00:11:10.690Z,9.77
2023-04-03T00:13:41.519Z,9.76
2023-04-03T00:16:11.872Z,9.77
2023-04-03T00:18:40.065Z,9.79
2023-04-03T00:21:15.372Z,9.77
2023-04-03T00:23:42.373Z,9.76
2023-04-03T00:26:09.749Z,9.75
2023-04-03T00:28:40.624Z,9.73
2023-04-03T00:31:09.801Z,9.74
2023-04-03T00:33:38.044Z,9.74
2023-04-03T00:36:12.368Z,9.74
2023-04-03T00:38:42.052Z,9.71
2023-04-03T00:41:10.736Z,9.72
2023-04-03T00:43:40.950Z,9.73
2023-04-03T00:46:10.064Z,9.75
2023-04-03T00:48:41.900Z,9.81
2023-04-03T00:51:10.860Z,9.86
2023-04-03T00:53:39.945Z,9.87
2023-04-03T00:56:10.522Z,9.84
2023-04-03T00:58:56.445Z,9.80
2023-04-03T01:01:24.993Z,9.77
2023-04-03T01:03:54.870Z,9.74
2023-04-03T01:06:28.272Z,9.71
2023-04-03T01:09:00.783Z,9.70
2023-04-03T01:11:32.117Z,9.69
2023-04-03T01:14:03.001Z,9.67
2023-04-03T01:16:33.093Z,9.67
2023-04-03T01:19:04.401Z,9.67
2023-04-03T01:21:50.157Z,9.65
2023-04-03T01:24:23.802Z,9.62
2023-04-03T01:26:53.643Z,9.59
2023-04-03T01:29:20.911Z,9.57
2023-04-03T01:31:51.794Z,9.56
2023-04-03T01:34:24.583Z,9.55
2023-04-03T01:36:52.270Z,9.54
2023-04-03T01:39:19.793Z,9.55
2023-04-03T01:41:48.909Z,9.54
2023-04-03T01:44:41.764Z,9.53
2023-04-03T01:47:09.806Z,9.52
2023-04-03T01:49:38.153Z,9.51
2023-04-03T01:52:05.125Z,9.50
2023-04-03T01:54:31.950Z,9.49
2023-04-03T01:57:00.204Z,9.48
2023-04-03T01:59:27.230Z,9.46
2023-04-03T02:01:55.462Z,9.47
2023-04-03T02:04:22.759Z,9.48
2023-04-03T02:06:53.171Z,9.47
2023-04-03T02:09:23.080Z,9.45
2023-04-03T02:11:51.422Z,9.42
2023-04-03T02:14:18.538Z,9.37
2023-04-03T02:17:09.666Z,9.34
2023-04-03T02:19:37.237Z,9.31
2023-04-03T02:22:05.048Z,9.28
2023-04-03T02:24:33.149Z,9.26
2023-04-03T02:27:01.734Z,9.25
2023-04-03T02:29:28.643Z,9.24
2023-04-03T02:31:56.367Z,9.24
2023-04-03T02:34:24.308Z,9.24
2023-04-03T02:36:52.335Z,9.23
2023-04-03T02:39:22.079Z,9.23
2023-04-03T02:41:49.200Z,9.22
2023-04-03T02:44:21.349Z,9.23
2023-04-03T02:46:48.183Z,9.24
2023-04-03T02:49:17.454Z,9.26
2023-04-03T02:51:45.477Z,9.26
2023-04-03T02:54:15.482Z,9.26
2023-04-03T02:56:46.916Z,9.25
2023-04-03T02:59:15.766Z,9.22
2023-04-03T03:01:43.379Z,9.19
2023-04-03T03:04:10.343Z,9.17
2023-04-03T03:06:39.686Z,9.14
2023-04-03T03:09:07.108Z,9.12
2023-04-03T03:11:36.652Z,9.08
2023-04-03T03:14:03.449Z,9.04
2023-04-03T03:16:30.705Z,9.00
2023-04-03T03:18:57.973Z,8.96
2023-04-03T03:21:29.147Z,8.93
2023-04-03T03:23:58.508Z,8.91
2023-04-03T03:26:28.503Z,8.88
2023-04-03T03:28:55.845Z,8.86
2023-04-03T03:31:22.926Z,8.83
2023-04-03T03:33:50.460Z,8.81
2023-04-03T03:36:21.368Z,8.77
2023-04-03T03:38:48.231Z,8.76
2023-04-03T03:41:15.111Z,8.72
2023-04-03T03:43:45.418Z,8.69
2023-04-03T03:46:14.553Z,8.68
2023-04-03T03:48:41.399Z,8.68
2023-04-03T03:51:08.361Z,8.70
2023-04-03T03:53:39.587Z,8.72
2023-04-03T03:56:12.472Z,8.72
2023-04-03T03:58:44.879Z,8.71
2023-04-03T04:01:16.344Z,8.72
2023-04-03T04:03:47.394Z,8.73
2023-04-03T04:06:22.769Z,8.74
2023-04-03T04:08:52.110Z,8.76
2023-04-03T04:11:24.160Z,8.79
2023-04-03T04:13:52.654Z,8.83
2023-04-03T04:16:22.075Z,8.87
2023-04-03T04:18:51.562Z,8.92
2023-04-03T04:21:22.271Z,8.94
2023-04-03T04:23:51.861Z,8.96
2023-04-03T04:26:22.649Z,9.00
2023-04-03T04:28:50.059Z,9.03
2023-04-03T04:31:22.188Z,9.04
2023-04-03T04:33:49.481Z,9.07
2023-04-03T04:36:16.780Z,9.09
2023-04-03T04:38:48.615Z,9.12
2023-04-03T04:41:17.084Z,9.17
2023-04-03T04:43:46.137Z,9.22
2023-04-03T04:46:14.749Z,9.25
2023-04-03T04:48:51.754Z,9.28
2023-04-03T04:51:22.909Z,9.32
2023-04-03T04:53:54.194Z,9.35
2023-04-03T04:56:32.671Z,9.40
2023-04-03T04:59:01.915Z,9.45
2023-04-03T05:01:28.888Z,9.51
2023-04-03T05:04:10.600Z,9.58
2023-04-03T05:06:41.661Z,9.66
2023-04-03T05:09:16.686Z,9.73
2023-04-03T05:11:48.104Z,9.79
2023-04-03T05:14:21.772Z,9.88
2023-04-03T05:16:51.447Z,9.98
2023-04-03T05:19:19.125Z,10.04
2023-04-03T05:21:46.460Z,10.10
2023-04-03T05:24:21.455Z,10.16
2023-04-03T05:26:48.502Z,10.21
2023-04-03T05:29:16.284Z,10.26
2023-04-03T05:31:43.539Z,10.30
2023-04-03T05:34:13.522Z,10.34
2023-04-03T05:36:46.749Z,10.38
2023-04-03T05:39:19.275Z,10.43
2023-04-03T05:41:51.495Z,10.48
2023-04-03T05:44:18.462Z,10.52
2023-04-03T05:46:47.883Z,10.56
2023-04-03T05:49:21.225Z,10.59
2023-04-03T05:51:50.956Z,10.60
2023-04-03T05:57:17.407Z,10.65
2023-04-03T05:59:49.995Z,10.67
2023-04-03T06:02:27.556Z,10.70
2023-04-03T06:04:54.658Z,10.71
2023-04-03T06:07:23.592Z,10.72
2023-04-03T06:09:55.054Z,10.71
2023-04-03T06:12:25.322Z,10.73
2023-04-03T06:14:54.956Z,10.75
2023-04-03T06:17:22.041Z,10.77
2023-04-03T06:19:51.833Z,10.80
2023-04-03T06:22:22.340Z,10.81
2023-04-03T06:24:54.541Z,10.81
2023-04-03T06:27:21.895Z,10.81
2023-04-03T06:29:49.890Z,10.78
2023-04-03T06:32:17.544Z,10.78
2023-04-03T06:34:44.959Z,10.79
2023-04-03T06:37:22.469Z,10.81
2023-04-03T06:39:50.037Z,10.83
2023-04-03T06:42:17.239Z,10.88
2023-04-03T06:44:53.230Z,10.95
2023-04-03T06:47:20.049Z,11.04
2023-04-03T06:49:47.873Z,11.16
2023-04-03T06:52:16.702Z,11.28
2023-04-03T06:54:43.782Z,11.42
2023-04-03T06:57:10.632Z,11.56
2023-04-03T06:59:38.599Z,11.73
2023-04-03T07:02:15.274Z,11.92
2023-04-03T07:04:43.781Z,12.10
2023-04-03T07:07:10.720Z,12.29
2023-04-03T07:09:40.034Z,12.46
2023-04-03T07:12:11.366Z,12.63
2023-04-03T07:14:38.533Z,12.78
2023-04-03T07:17:05.312Z,12.94
2023-04-03T07:19:34.710Z,13.10
2023-04-03T07:22:02.517Z,13.26
2023-04-03T07:24:29.485Z,13.42
2023-04-03T07:26:58.972Z,13.54
2023-04-03T07:29:28.089Z,13.66
2023-04-03T07:32:02.691Z,13.76
2023-04-03T07:34:29.681Z,13.87
2023-04-03T07:36:59.977Z,13.95
2023-04-03T07:39:30.350Z,14.06
2023-04-03T07:42:05.909Z,14.16
2023-04-03T07:44:33.625Z,14.29
2023-04-03T07:47:01.005Z,14.39
2023-04-03T07:49:28.505Z,14.43
2023-04-03T07:51:55.627Z,14.44
2023-04-03T07:54:24.347Z,14.43
2023-04-03T07:56:54.496Z,14.46
2023-04-03T07:59:22.229Z,14.47
2023-04-03T08:01:48.968Z,14.43
2023-04-03T08:04:18.760Z,14.39
2023-04-03T08:06:47.197Z,14.39
2023-04-03T08:09:16.272Z,14.40
2023-04-03T08:11:43.209Z,14.43
2023-04-03T08:14:16.480Z,14.46
2023-04-03T08:16:49.519Z,14.53
2023-04-03T08:19:25.976Z,14.62
2023-04-03T08:21:54.230Z,14.72
2023-04-03T08:24:24.135Z,14.82
2023-04-03T08:26:51.205Z,14.93
2023-04-03T08:29:20.259Z,15.02
2023-04-03T08:31:47.425Z,15.10
2023-04-03T08:34:15.746Z,15.18
2023-04-03T08:36:45.804Z,15.23
2023-04-03T08:39:15.618Z,15.26
2023-04-03T08:41:47.485Z,15.30
2023-04-03T08:44:46.387Z,15.39
2023-04-03T08:47:21.455Z,15.54
2023-04-03T08:49:59.873Z,15.63
2023-04-03T08:52:28.208Z,15.71
2023-04-03T08:54:57.391Z,15.77
2023-04-03T08:57:39.510Z,15.81
2023-04-03T09:00:16.109Z,15.85
2023-04-03T09:02:48.457Z,15.90
2023-04-03T09:05:40.226Z,15.95
2023-04-03T09:08:14.796Z,16.02
2023-04-03T09:10:45.437Z,16.07
2023-04-03T09:13:21.298Z,16.10
2023-04-03T09:15:49.542Z,16.13
2023-04-03T09:18:21.327Z,16.18
2023-04-03T09:21:09.193Z,16.20
2023-04-03T09:23:56.681Z,16.20
2023-04-03T09:26:40.113Z,16.23
2023-04-03T09:29:08.228Z,16.32
2023-04-03T09:31:44.239Z,16.37
2023-04-03T09:34:16.119Z,16.41
2023-04-03T09:36:47.347Z,16.48
2023-04-03T09:39:18.171Z,16.55
2023-04-03T09:42:00.767Z,16.60
2023-04-03T09:44:29.945Z,16.64
2023-04-03T09:46:56.917Z,16.68
2023-04-03T09:49:24.421Z,16.69
2023-04-03T09:51:54.319Z,16.68
2023-04-03T09:54:35.582Z,16.68
2023-04-03T09:57:09.518Z,16.69
2023-04-03T09:59:39.976Z,16.71
2023-04-03T10:02:12.588Z,16.72
2023-04-03T10:04:41.651Z,16.74
2023-04-03T10:07:35.005Z,16.81
2023-04-03T10:10:16.753Z,16.87
2023-04-03T10:12:43.942Z,16.95
2023-04-03T10:15:16.869Z,17.04
2023-04-03T10:17:44.450Z,17.06
2023-04-03T10:20:35.203Z,17.06
2023-04-03T10:23:21.538Z,17.02
2023-04-03T10:25:58.447Z,17.00
2023-04-03T10:28:39.764Z,16.96
2023-04-03T10:31:12.746Z,16.88
2023-04-03T10:34:02.801Z,16.77
2023-04-03T10:36:49.040Z,16.63
2023-04-03T10:39:18.954Z,16.51
2023-04-03T10:42:15.159Z,16.40
2023-04-03T10:44:54.099Z,16.29
2023-04-03T10:47:23.775Z,16.19
2023-04-03T10:50:08.743Z,16.15
2023-04-03T10:52:35.826Z,16.16
2023-04-03T10:55:14.425Z,16.21
2023-04-03T10:57:44.920Z,16.29
2023-04-03T11:00:21.148Z,16.39
2023-04-03T11:02:57.958Z,16.49
2023-04-03T11:05:39.028Z,16.56
2023-04-03T11:08:24.817Z,16.60
2023-04-03T11:10:52.516Z,16.66
2023-04-03T11:13:24.454Z,16.69
2023-04-03T11:15:54.124Z,16.81
2023-04-03T11:18:28.399Z,16.87
2023-04-03T11:21:06.720Z,16.94
2023-04-03T11:23:48.307Z,17.01
2023-04-03T11:26:23.376Z,17.09
2023-04-03T11:28:57.450Z,17.20
2023-04-03T11:31:31.289Z,17.27
2023-04-03T11:34:01.102Z,17.34
2023-04-03T11:36:33.537Z,17.37
2023-04-03T11:39:11.237Z,17.39
2023-04-03T11:41:40.296Z,17.43
2023-04-03T11:44:30.585Z,17.47
2023-04-03T11:46:59.081Z,17.56
2023-04-03T11:49:44.626Z,17.60
2023-04-03T11:52:12.127Z,17.61
2023-04-03T11:54:45.142Z,17.58
2023-04-03T11:57:46.707Z,17.55
2023-04-03T12:00:32.226Z,17.47
2023-04-03T12:03:02.274Z,17.36
2023-04-03T12:05:33.033Z,17.25
2023-04-03T12:08:19.326Z,17.13
2023-04-03T12:11:12.510Z,16.95
2023-04-03T12:14:04.836Z,16.78
2023-04-03T12:16:48.692Z,16.67
2023-04-03T12:19:17.579Z,16.60
2023-04-03T12:21:47.592Z,16.53
2023-04-03T12:24:21.526Z,16.45
2023-04-03T12:26:54.371Z,16.36
2023-04-03T12:29:35.715Z,16.30
2023-04-03T12:32:02.561Z,16.24
2023-04-03T12:34:48.706Z,16.19
2023-04-03T12:37:22.106Z,16.13
2023-04-03T12:40:11.805Z,16.08
2023-04-03T12:42:42.047Z,15.99
2023-04-03T12:45:30.432Z,15.93
2023-04-03T12:47:57.544Z,15.86
2023-04-03T12:50:27.527Z,15.77
2023-04-03T12:53:14.182Z,15.71
2023-04-03T12:55:41.236Z,15.65
2023-04-03T12:58:21.986Z,15.60
2023-04-03T13:00:59.879Z,15.52
2023-04-03T13:03:30.690Z,15.43
2023-04-03T13:06:00.078Z,15.37
2023-04-03T13:08:35.915Z,15.29
2023-04-03T13:11:09.926Z,15.24
2023-04-03T13:13:38.044Z,15.16
2023-04-03T13:16:12.480Z,15.08
2023-04-03T13:18:39.742Z,15.00
2023-04-03T13:21:16.686Z,14.89
2023-04-03T13:23:47.653Z,14.78
2023-04-03T13:26:17.418Z,14.69
2023-04-03T13:28:47.525Z,14.60
2023-04-03T13:31:18.111Z,14.53
2023-04-03T13:33:57.484Z,14.45
2023-04-03T13:36:34.888Z,14.39
2023-04-03T13:39:01.677Z,14.35
2023-04-03T13:41:38.884Z,14.31
2023-04-03T13:44:24.396Z,14.27
2023-04-03T13:46:52.550Z,14.24
2023-04-03T13:49:27.565Z,14.20
2023-04-03T13:52:06.789Z,14.16
2023-04-03T13:54:36.863Z,14.16
2023-04-03T13:57:32.808Z,14.15
2023-04-03T13:59:59.711Z,14.14
2023-04-03T14:02:35.180Z,14.14
2023-04-03T14:05:04.593Z,14.12
2023-04-03T14:07:32.353Z,14.08
2023-04-03T14:09:59.384Z,14.06
2023-04-03T14:12:34.367Z,14.04
2023-04-03T14:15:05.317Z,14.01
2023-04-03T14:17:32.401Z,13.97
2023-04-03T14:19:59.918Z,13.93
2023-04-03T14:22:29.511Z,13.87
2023-04-03T14:24:57.257Z,13.80
2023-04-03T14:27:29.571Z,13.78
2023-04-03T14:29:59.267Z,13.73
2023-04-03T14:32:27.310Z,13.71
2023-04-03T14:34:54.274Z,13.70
2023-04-03T14:37:23.661Z,13.68
2023-04-03T14:39:51.393Z,13.65
2023-04-03T14:42:20.057Z,13.59
2023-04-03T14:44:48.329Z,13.54
2023-04-03T14:47:27.854Z,13.50
2023-04-03T14:49:58.207Z,13.47
2023-04-03T14:52:36.055Z,13.43
2023-04-03T14:55:07.410Z,13.40
2023-04-03T14:57:34.758Z,13.34
2023-04-03T15:00:05.467Z,13.30
2023-04-03T15:02:39.159Z,13.24
2023-04-03T15:05:07.929Z,13.20
2023-04-03T15:07:36.408Z,13.15
2023-04-03T15:10:20.542Z,13.13
2023-04-03T15:12:53.382Z,13.11
2023-04-03T15:15:24.401Z,13.09
2023-04-03T15:17:58.862Z,13.06
2023-04-03T15:20:33.996Z,13.03
2023-04-03T15:23:05.421Z,13.01
2023-04-03T15:25:33.518Z,12.99
2023-04-03T15:28:01.028Z,12.97
2023-04-03T15:30:30.922Z,12.94
2023-04-03T15:32:58.343Z,12.91
2023-04-03T15:35:26.322Z,12.87
2023-04-03T15:37:53.153Z,12.84
2023-04-03T15:40:21.609Z,12.81
2023-04-03T15:42:48.524Z,12.78
2023-04-03T15:45:17.706Z,12.77
2023-04-03T15:47:46.279Z,12.75
2023-04-03T15:50:13.149Z,12.71
2023-04-03T15:52:40.072Z,12.68
2023-04-03T15:55:09.521Z,12.64
2023-04-03T16:00:08.355Z,12.57
2023-04-03T16:02:35.666Z,12.54
2023-04-03T16:05:05.084Z,12.51
2023-04-03T16:07:31.924Z,12.49
2023-04-03T16:09:59.094Z,12.48
2023-04-03T16:12:25.920Z,12.46
2023-04-03T16:14:52.877Z,12.45
2023-04-03T16:17:21.782Z,12.44
2023-04-03T16:19:48.612Z,12.42
2023-04-03T16:22:15.643Z,12.40
2023-04-03T16:24:42.638Z,12.39
2023-04-03T16:27:09.464Z,12.39
2023-04-03T16:29:37.341Z,12.39
2023-04-03T16:32:07.241Z,12.39
2023-04-03T16:34:37.148Z,12.38
2023-04-03T16:37:06.757Z,12.36
2023-04-03T16:39:36.294Z,12.35
2023-04-03T16:42:03.771Z,12.34
2023-04-03T16:44:31.047Z,12.35
2023-04-03T16:46:57.905Z,12.34
2023-04-03T16:49:25.068Z,12.32
2023-04-03T16:51:51.889Z,12.31
2023-04-03T16:54:19.002Z,12.30
2023-04-03T16:56:45.899Z,12.30
2023-04-03T16:59:14.438Z,12.28
2023-04-03T17:01:42.185Z,12.28
2023-04-03T17:04:13.097Z,12.26
2023-04-03T17:06:40.944Z,12.25
2023-04-03T17:09:10.480Z,12.24
2023-04-03T17:11:40.034Z,12.23
2023-04-03T17:14:11.846Z,12.22
2023-04-03T17:16:41.669Z,12.23
2023-04-03T17:19:09.672Z,12.21
2023-04-03T17:21:39.108Z,12.19
2023-04-03T17:24:09.610Z,12.17
2023-04-03T17:26:40.109Z,12.13
2023-04-03T17:29:09.446Z,12.12
2023-04-03T17:31:38.167Z,12.08
2023-04-03T17:34:05.049Z,12.06
2023-04-03T17:36:35.126Z,12.03
2023-04-03T17:39:04.720Z,12.01
2023-04-03T17:41:32.181Z,12.00
2023-04-03T17:43:59.203Z,11.98
2023-04-03T17:46:35.331Z,11.95
2023-04-03T17:49:05.909Z,11.92
2023-04-03T17:51:34.659Z,11.90
2023-04-03T17:54:05.104Z,11.86
2023-04-03T17:56:33.614Z,11.84
2023-04-03T17:59:00.731Z,11.82
2023-04-03T18:01:34.224Z,11.80
2023-04-03T18:04:02.487Z,11.77
2023-04-03T18:06:32.120Z,11.73
2023-04-03T18:09:03.683Z,11.71
2023-04-03T18:11:30.679Z,11.67
2023-04-03T18:14:02.166Z,11.64
2023-04-03T18:16:29.614Z,11.61
2023-04-03T18:19:20.675Z,11.56
2023-04-03T18:21:47.958Z,11.52
2023-04-03T18:24:18.812Z,11.48
2023-04-03T18:26:48.328Z,11.45
2023-04-03T18:29:17.678Z,11.40
2023-04-03T18:31:50.706Z,11.36
2023-04-03T18:34:17.689Z,11.32
2023-04-03T18:36:44.734Z,11.30
2023-04-03T18:39:12.113Z,11.26
2023-04-03T18:41:39.302Z,11.22
2023-04-03T18:44:08.309Z,11.19
2023-04-03T18:46:35.327Z,11.17
2023-04-03T18:49:02.560Z,11.15
2023-04-03T18:51:30.052Z,11.12
2023-04-03T18:53:57.203Z,11.10
2023-04-03T18:56:24.135Z,11.09
2023-04-03T18:58:51.063Z,11.07
2023-04-03T19:01:18.105Z,11.07
2023-04-03T19:03:45.080Z,11.08
2023-04-03T19:06:12.335Z,11.09
2023-04-03T19:08:39.595Z,11.09
2023-04-03T19:11:09.820Z,11.10
2023-04-03T19:13:38.981Z,11.10
2023-04-03T19:16:12.906Z,11.09
2023-04-03T19:18:40.014Z,11.09
2023-04-03T19:21:07.002Z,11.09
2023-04-03T19:23:34.641Z,11.10
2023-04-03T19:26:04.736Z,11.10
2023-04-03T19:28:31.975Z,11.09
2023-04-03T19:30:59.874Z,11.10
2023-04-03T19:33:27.548Z,11.10
2023-04-03T19:35:54.670Z,11.09
2023-04-03T19:38:21.629Z,11.07
2023-04-03T19:40:51.428Z,11.05
2023-04-03T19:43:18.713Z,11.04
2023-04-03T19:45:46.595Z,11.04
2023-04-03T19:48:13.877Z,11.02
2023-04-03T19:50:41.407Z,11.01
2023-04-03T19:53:18.717Z,10.98
2023-04-03T19:55:46.648Z,10.98
2023-04-03T19:58:13.609Z,10.97
2023-04-03T20:00:40.781Z,10.97
2023-04-03T20:03:07.892Z,10.95
2023-04-03T20:05:34.780Z,10.93
2023-04-03T20:08:01.566Z,10.93
2023-04-03T20:10:28.365Z,10.90
2023-04-03T20:12:55.441Z,10.89
2023-04-03T20:15:22.329Z,10.85
2023-04-03T20:17:49.698Z,10.81
2023-04-03T20:20:16.682Z,10.77
2023-04-03T20:22:43.797Z,10.72
2023-04-03T20:25:15.337Z,10.69
2023-04-03T20:27:44.265Z,10.67
2023-04-03T20:30:13.271Z,10.67
2023-04-03T20:32:40.073Z,10.64
2023-04-03T20:35:07.261Z,10.62
2023-04-03T20:37:34.102Z,10.62
2023-04-03T20:40:01.200Z,10.61
2023-04-03T20:42:28.074Z,10.61
2023-04-03T20:44:57.455Z,10.60
2023-04-03T20:47:24.389Z,10.57
2023-04-03T20:49:53.722Z,10.54
2023-04-03T20:52:20.862Z,10.52
2023-04-03T20:54:47.759Z,10.53
2023-04-03T20:57:14.799Z,10.53
2023-04-03T20:59:42.506Z,10.52
2023-04-03T21:02:09.438Z,10.50
2023-04-03T21:04:42.378Z,10.47
2023-04-03T21:07:28.092Z,10.45
2023-04-03T21:10:14.371Z,10.42
2023-04-03T21:13:00.314Z,10.41
2023-04-03T21:15:46.106Z,10.39
2023-04-03T21:18:13.163Z,10.39
2023-04-03T21:20:40.567Z,10.38
2023-04-03T21:23:07.658Z,10.37
2023-04-03T21:25:34.734Z,10.35
2023-04-03T21:28:02.549Z,10.33
2023-04-03T21:30:29.335Z,10.30
2023-04-03T21:32:56.654Z,10.27
2023-04-03T21:35:23.738Z,10.24
2023-04-03T21:37:50.550Z,10.23
2023-04-03T21:40:17.758Z,10.21
2023-04-03T21:42:44.552Z,10.20
2023-04-03T21:45:15.630Z,10.19
2023-04-03T21:47:43.931Z,10.19
2023-04-03T21:50:11.060Z,10.17
2023-04-03T21:52:37.888Z,10.18
2023-04-03T21:55:04.937Z,10.19
2023-04-03T21:57:32.380Z,10.19
2023-04-03T21:59:59.425Z,10.17
2023-04-03T22:02:31.547Z,10.16
2023-04-03T22:04:58.602Z,10.15
2023-04-03T22:07:25.775Z,10.14
2023-04-03T22:09:52.683Z,10.11
2023-04-03T22:12:19.403Z,10.10
2023-04-03T22:14:46.340Z,10.06
2023-04-03T22:17:13.599Z,10.02
2023-04-03T22:19:40.334Z,9.99
2023-04-03T22:22:07.585Z,9.94
2023-04-03T22:24:34.504Z,9.90
2023-04-03T22:27:01.738Z,9.88
2023-04-03T22:29:28.749Z,9.87
2023-04-03T22:31:55.876Z,9.84
2023-04-03T22:34:23.348Z,9.83
2023-04-03T22:36:50.777Z,9.80
2023-04-03T22:39:19.412Z,9.79
2023-04-03T22:41:46.373Z,9.76
2023-04-03T22:44:13.245Z,9.75
2023-04-03T22:46:40.083Z,9.72
2023-04-03T22:49:07.315Z,9.70
2023-04-03T22:51:34.159Z,9.68
2023-04-03T22:54:01.036Z,9.64
2023-04-03T22:56:27.999Z,9.58
2023-04-03T22:58:55.465Z,9.52
2023-04-03T23:01:24.231Z,9.49
2023-04-03T23:03:53.028Z,9.44
2023-04-03T23:06:19.907Z,9.40
2023-04-03T23:08:46.695Z,9.36
2023-04-03T23:11:13.487Z,9.32
2023-04-03T23:13:40.364Z,9.30
2023-04-03T23:16:08.224Z,9.27
2023-04-03T23:18:35.162Z,9.26
2023-04-03T23:21:04.141Z,9.25
2023-04-03T23:23:32.178Z,9.23
2023-04-03T23:25:59.985Z,9.23
2023-04-03T23:28:27.859Z,9.25
2023-04-03T23:31:02.199Z,9.27
2023-04-03T23:33:30.809Z,9.29
2023-04-03T23:35:58.676Z,9.30
2023-04-03T23:38:25.810Z,9.29
2023-04-03T23:40:52.807Z,9.27
2023-04-03T23:43:19.735Z,9.25
2023-04-03T23:45:46.891Z,9.22
2023-04-03T23:48:13.771Z,9.21
2023-04-03T23:50:42.688Z,9.21
2023-04-03T23:53:09.553Z,9.19
2023-04-03T23:55:36.992Z,9.18
2023-04-03T23:58:04.272Z,9.19
